Time;durP1;ratioP1;P1;durP2;ratioP2;P2;SDS_P1;SDS_P2;PMS_P1;PMS_P2;Temp;Humidity;BMP_temperature;BMP_pressure;BME280_temperature;BME280_humidity;BME280_pressure;Samples;Min_cycle;Max_cycle;Signal;HPM_P1;HPM_P2
2023/09/24 00:01:44;;;;;;;10.57;5.97;;;11.30;99.90;;;;;;5011050;28;20172;-72
2023/09/24 00:04:10;;;;;;;7.30;6.23;;;11.20;99.90;;;;;;5013057;28;20199;-72
2023/09/24 00:06:36;;;;;;;7.87;6.07;;;11.20;99.90;;;;;;5011309;28;20180;-71
2023/09/24 00:09:02;;;;;;;8.47;5.80;;;11.20;99.90;;;;;;5025911;28;20254;-71
2023/09/24 00:11:28;;;;;;;11.87;6.23;;;11.20;99.90;;;;;;5002698;28;20731;-73
2023/09/24 00:13:54;;;;;;;11.63;6.53;;;11.10;99.90;;;;;;5011136;28;20318;-71
2023/09/24 00:16:20;;;;;;;16.60;6.90;;;11.10;99.90;;;;;;5010604;28;20645;-71
2023/09/24 00:18:46;;;;;;;7.83;6.40;;;11.10;99.90;;;;;;5011091;28;20212;-71
2023/09/24 00:21:12;;;;;;;10.97;7.17;;;11.10;99.90;;;;;;5013004;28;20186;-72
2023/09/24 00:23:39;;;;;;;11.27;7.77;;;11.00;99.90;;;;;;5015602;28;20188;-72
2023/09/24 00:26:05;;;;;;;10.53;7.80;;;11.00;99.90;;;;;;5014721;28;20731;-72
2023/09/24 00:28:31;;;;;;;10.23;8.30;;;10.90;99.90;;;;;;5014628;28;20314;-72
2023/09/24 00:30:58;;;;;;;9.97;7.87;;;10.90;99.90;;;;;;5014539;28;20258;-72
2023/09/24 00:33:24;;;;;;;15.90;9.30;;;10.90;99.90;;;;;;5014439;28;20184;-71
2023/09/24 00:35:51;;;;;;;11.37;8.50;;;10.90;99.90;;;;;;5014834;28;20181;-72
2023/09/24 00:38:18;;;;;;;11.17;8.67;;;10.90;99.90;;;;;;5014336;28;20204;-71
2023/09/24 00:40:44;;;;;;;14.67;8.67;;;10.80;99.90;;;;;;5018388;28;20184;-72
2023/09/24 00:43:27;;;;;;;15.50;9.57;;;10.90;99.90;;;;;;5017051;28;20203;-72
2023/09/24 00:45:53;;;;;;;14.10;8.90;;;10.80;99.90;;;;;;5014448;28;20180;-71
2023/09/24 00:48:19;;;;;;;13.57;9.57;;;10.80;99.90;;;;;;5012834;28;20218;-72
2023/09/24 00:50:45;;;;;;;15.00;10.10;;;10.70;99.90;;;;;;5014354;28;20184;-72
2023/09/24 00:53:11;;;;;;;13.33;10.50;;;10.70;99.90;;;;;;5014203;28;20706;-72
2023/09/24 00:55:37;;;;;;;13.53;9.77;;;10.70;99.90;;;;;;5014158;28;20176;-72
2023/09/24 00:58:04;;;;;;;16.33;9.80;;;10.70;99.90;;;;;;5014135;28;20208;-71
2023/09/24 01:00:34;;;;;;;14.90;9.50;;;10.70;99.90;;;;;;5013787;28;20192;-71
2023/09/24 01:03:00;;;;;;;12.40;9.50;;;10.70;99.90;;;;;;5021578;28;20179;-71
2023/09/24 01:05:27;;;;;;;14.30;9.17;;;10.70;99.90;;;;;;5019338;28;20192;-71
2023/09/24 01:07:54;;;;;;;14.50;9.53;;;10.60;99.90;;;;;;5013885;28;20212;-70
2023/09/24 01:10:23;;;;;;;14.50;9.77;;;10.60;99.90;;;;;;5013608;28;20181;-72
2023/09/24 01:13:00;;;;;;;14.60;9.83;;;10.60;99.90;;;;;;5017301;28;20254;-71
2023/09/24 01:15:31;;;;;;;13.87;9.00;;;10.50;99.90;;;;;;5013919;28;20204;-71
2023/09/24 01:17:57;;;;;;;18.77;10.53;;;10.50;99.90;;;;;;5014083;28;20186;-71
2023/09/24 01:20:24;;;;;;;14.13;10.67;;;10.40;99.90;;;;;;5013476;28;20191;-71
2023/09/24 01:22:51;;;;;;;15.57;10.67;;;10.40;99.90;;;;;;5013839;28;20184;-71
2023/09/24 01:25:20;;;;;;;17.00;11.37;;;10.40;99.90;;;;;;5013507;28;20326;-74
2023/09/24 01:27:46;;;;;;;12.40;9.87;;;10.40;99.90;;;;;;5013517;28;20203;-74
2023/09/24 01:30:15;;;;;;;19.13;10.17;;;10.40;99.90;;;;;;5013162;28;20220;-71
2023/09/24 01:32:40;;;;;;;19.03;10.03;;;10.30;99.90;;;;;;5014826;28;20184;-71
2023/09/24 01:35:07;;;;;;;15.37;10.10;;;10.30;99.90;;;;;;5017658;28;20565;-73
2023/09/24 01:37:33;;;;;;;11.23;9.20;;;10.30;99.90;;;;;;5012247;28;20549;-70
2023/09/24 01:40:10;;;;;;;17.03;10.60;;;10.20;99.90;;;;;;5013244;28;20283;-70
2023/09/24 01:42:36;;;;;;;13.33;9.03;;;10.20;99.90;;;;;;5013186;28;20277;-70
2023/09/24 01:45:02;;;;;;;12.37;9.27;;;10.20;99.90;;;;;;5013353;28;20176;-70
2023/09/24 01:47:28;;;;;;;15.03;10.47;;;10.20;99.90;;;;;;5011809;28;20208;-70
2023/09/24 01:49:56;;;;;;;12.87;9.20;;;10.10;99.90;;;;;;5012947;28;20266;-71
2023/09/24 01:52:22;;;;;;;14.73;9.67;;;10.10;99.90;;;;;;5013039;28;20263;-70
2023/09/24 01:54:48;;;;;;;11.37;9.50;;;10.10;99.90;;;;;;5013267;28;20267;-72
2023/09/24 01:57:13;;;;;;;14.20;9.90;;;10.20;99.90;;;;;;5012920;28;20551;-73
2023/09/24 01:59:39;;;;;;;10.67;8.77;;;10.10;99.90;;;;;;5012717;28;20211;-72
2023/09/24 02:02:06;;;;;;;12.40;9.13;;;10.10;99.90;;;;;;5017490;28;20190;-73
2023/09/24 02:04:32;;;;;;;17.43;8.40;;;10.00;99.90;;;;;;5012932;28;20550;-72
2023/09/24 02:07:00;;;;;;;14.20;8.33;;;10.00;99.90;;;;;;5018140;28;20172;-70
2023/09/24 02:09:26;;;;;;;11.97;9.00;;;10.00;99.90;;;;;;5013506;28;20578;-70
2023/09/24 02:11:54;;;;;;;13.03;8.80;;;10.00;99.90;;;;;;5012673;28;20259;-71
2023/09/24 02:14:19;;;;;;;12.10;8.87;;;9.90;99.90;;;;;;5012464;28;20184;-70
2023/09/24 02:16:45;;;;;;;9.70;7.83;;;9.80;99.90;;;;;;5012767;28;20544;-71
2023/09/24 02:19:11;;;;;;;10.40;8.00;;;9.80;99.90;;;;;;5012556;28;20208;-71
2023/09/24 02:21:40;;;;;;;16.97;9.23;;;9.70;99.90;;;;;;5012188;28;20544;-70
2023/09/24 02:24:07;;;;;;;11.03;8.37;;;9.80;99.90;;;;;;5012684;28;20191;-70
2023/09/24 02:26:33;;;;;;;11.97;8.17;;;9.80;99.90;;;;;;5012469;28;20207;-71
2023/09/24 02:28:59;;;;;;;11.67;8.43;;;9.70;99.90;;;;;;5013626;28;20238;-71
2023/09/24 02:31:26;;;;;;;12.73;8.43;;;9.70;99.90;;;;;;5012084;28;20628;-71
2023/09/24 02:33:52;;;;;;;8.93;7.53;;;9.60;99.90;;;;;;5012556;28;20175;-73
2023/09/24 02:36:17;;;;;;;9.07;7.23;;;9.60;99.90;;;;;;5012474;28;20181;-70
2023/09/24 02:38:43;;;;;;;9.70;7.60;;;9.60;99.90;;;;;;5019006;28;20221;-70
2023/09/24 02:41:11;;;;;;;8.60;7.43;;;9.60;99.90;;;;;;5016008;28;20191;-71
2023/09/24 02:43:37;;;;;;;15.13;8.43;;;9.60;99.90;;;;;;5010144;28;20210;-71
2023/09/24 02:46:05;;;;;;;9.00;8.20;;;9.50;99.90;;;;;;5012407;28;20180;-72
2023/09/24 02:48:32;;;;;;;10.67;9.40;;;9.50;99.90;;;;;;5012048;28;20266;-71
2023/09/24 02:51:08;;;;;;;13.27;9.03;;;9.50;99.90;;;;;;5012217;28;20180;-71
2023/09/24 02:53:35;;;;;;;10.13;8.63;;;9.50;99.90;;;;;;5020431;28;20264;-72
2023/09/24 02:56:01;;;;;;;10.73;8.63;;;9.50;99.90;;;;;;5013652;28;20667;-72
2023/09/24 02:58:26;;;;;;;12.63;8.20;;;9.40;99.90;;;;;;5013381;28;20619;-71
2023/09/24 03:00:52;;;;;;;10.57;8.50;;;9.40;99.90;;;;;;5011945;28;20188;-72
2023/09/24 03:03:18;;;;;;;11.40;8.33;;;9.40;99.90;;;;;;5011964;28;20180;-73
2023/09/24 03:05:43;;;;;;;11.93;8.43;;;9.40;99.90;;;;;;5011951;28;20172;-71
2023/09/24 03:08:09;;;;;;;11.27;8.60;;;9.40;99.90;;;;;;5012115;28;20203;-71
2023/09/24 03:10:36;;;;;;;13.97;8.63;;;9.30;99.90;;;;;;5011722;28;20172;-71
2023/09/24 03:13:04;;;;;;;10.07;7.77;;;9.30;99.90;;;;;;5010696;28;20585;-71
2023/09/24 03:15:30;;;;;;;8.50;7.70;;;9.20;99.90;;;;;;5011619;28;20176;-71
2023/09/24 03:17:56;;;;;;;10.63;8.17;;;9.20;99.90;;;;;;5011784;28;20678;-72
2023/09/24 03:20:22;;;;;;;9.77;7.60;;;9.20;99.90;;;;;;5011475;28;20203;-71
2023/09/24 03:22:50;;;;;;;7.97;7.23;;;9.10;99.90;;;;;;5012668;28;20180;-71
2023/09/24 03:25:23;;;;;;;10.20;7.70;;;9.10;99.90;;;;;;5011597;28;20194;-71
2023/09/24 03:27:50;;;;;;;9.37;6.73;;;9.20;99.90;;;;;;5011595;28;20199;-72
2023/09/24 03:30:17;;;;;;;7.80;7.10;;;9.20;99.90;;;;;;5011634;28;20176;-71
2023/09/24 03:32:53;;;;;;;7.87;7.03;;;9.20;99.90;;;;;;5011689;28;20187;-71
2023/09/24 03:35:26;;;;;;;8.80;6.63;;;9.10;99.90;;;;;;5011596;28;20259;-72
2023/09/24 03:37:52;;;;;;;7.67;6.97;;;9.10;99.90;;;;;;5014863;28;20207;-72
2023/09/24 03:40:20;;;;;;;8.60;6.70;;;9.00;99.90;;;;;;5011431;28;20204;-72
2023/09/24 03:42:47;;;;;;;7.87;7.00;;;9.10;99.90;;;;;;5011435;28;20195;-72
2023/09/24 03:45:15;;;;;;;7.17;6.47;;;9.00;99.90;;;;;;5011651;28;20195;-72
2023/09/24 03:47:41;;;;;;;7.53;6.40;;;9.00;99.90;;;;;;5003184;28;20207;-72
2023/09/24 03:50:10;;;;;;;9.47;6.60;;;9.00;99.90;;;;;;5011332;28;20230;-72
2023/09/24 03:52:37;;;;;;;6.97;6.27;;;8.90;99.90;;;;;;5011547;28;20725;-72
2023/09/24 03:55:04;;;;;;;7.37;6.67;;;8.90;99.90;;;;;;5012178;28;20172;-72
2023/09/24 03:57:30;;;;;;;12.17;6.70;;;9.00;99.90;;;;;;5015227;28;20175;-72
2023/09/24 03:59:57;;;;;;;6.10;5.60;;;9.00;99.90;;;;;;5015158;28;20291;-72
2023/09/24 04:02:23;;;;;;;11.27;6.60;;;9.00;99.90;;;;;;5015323;28;20191;-73
2023/09/24 04:04:49;;;;;;;11.73;6.03;;;9.00;99.90;;;;;;5015567;28;20226;-73
2023/09/24 04:07:16;;;;;;;6.77;6.10;;;9.00;99.90;;;;;;5015244;28;20615;-72
2023/09/24 04:09:43;;;;;;;6.67;5.80;;;9.00;99.90;;;;;;5006914;28;20196;-71
2023/09/24 04:12:08;;;;;;;9.57;6.20;;;9.00;99.90;;;;;;5015188;28;20183;-72
2023/09/24 04:14:35;;;;;;;8.67;6.17;;;9.00;99.90;;;;;;5015141;28;20176;-72
2023/09/24 04:17:02;;;;;;;7.00;5.87;;;9.00;99.90;;;;;;5015326;28;20259;-72
2023/09/24 04:19:28;;;;;;;7.40;5.80;;;9.00;99.90;;;;;;5014585;28;20196;-72
2023/09/24 04:21:54;;;;;;;7.30;6.40;;;9.00;99.90;;;;;;5019522;28;20187;-72
2023/09/24 04:24:20;;;;;;;7.80;5.90;;;9.00;99.90;;;;;;5014846;28;20180;-72
2023/09/24 04:26:46;;;;;;;10.47;5.77;;;9.00;99.90;;;;;;5013687;28;20176;-72
2023/09/24 04:29:12;;;;;;;7.13;6.37;;;9.00;99.90;;;;;;5014781;28;20212;-72
2023/09/24 04:31:38;;;;;;;9.40;6.10;;;9.00;99.90;;;;;;5014303;28;20554;-73
2023/09/24 04:34:04;;;;;;;8.17;5.80;;;9.00;99.90;;;;;;5022425;28;20247;-72
2023/09/24 04:36:30;;;;;;;8.90;5.70;;;9.00;99.90;;;;;;5014587;28;20184;-72
2023/09/24 04:38:55;;;;;;;7.60;5.60;;;9.00;99.90;;;;;;5014619;28;20202;-72
2023/09/24 04:41:21;;;;;;;6.53;5.87;;;8.90;99.90;;;;;;5014435;28;20186;-72
2023/09/24 04:43:47;;;;;;;6.30;5.77;;;8.90;99.90;;;;;;5014586;28;20659;-72
2023/09/24 04:46:14;;;;;;;6.30;5.80;;;8.80;99.90;;;;;;5014763;28;20199;-72
2023/09/24 04:48:39;;;;;;;6.60;5.90;;;8.80;99.90;;;;;;5015169;28;20723;-71
2023/09/24 04:51:05;;;;;;;7.83;6.23;;;8.70;99.90;;;;;;5014376;28;20184;-72
2023/09/24 04:53:31;;;;;;;7.23;5.70;;;8.70;99.90;;;;;;5022327;28;20175;-73
2023/09/24 04:56:00;;;;;;;7.40;5.83;;;8.70;99.90;;;;;;5013171;28;20176;-72
2023/09/24 04:58:26;;;;;;;7.27;5.83;;;8.70;99.90;;;;;;5014085;28;20211;-73
2023/09/24 05:01:01;;;;;;;7.73;5.40;;;8.70;99.90;;;;;;5014320;28;20597;-73
2023/09/24 05:03:27;;;;;;;5.83;5.43;;;8.70;99.90;;;;;;5012940;28;20183;-73
2023/09/24 05:05:52;;;;;;;9.20;5.73;;;8.60;99.90;;;;;;5017968;28;20591;-72
2023/09/24 05:08:18;;;;;;;8.47;5.20;;;8.60;99.90;;;;;;5017463;28;20203;-73
2023/09/24 05:10:44;;;;;;;6.30;5.60;;;8.50;99.90;;;;;;5005821;28;20180;-72
2023/09/24 05:13:11;;;;;;;6.03;5.53;;;8.40;99.90;;;;;;5015723;28;20230;-72
2023/09/24 05:15:36;;;;;;;5.67;5.23;;;8.40;99.90;;;;;;5012518;28;20663;-72
2023/09/24 05:18:02;;;;;;;7.90;5.27;;;8.40;99.90;;;;;;5013893;28;20196;-71
2023/09/24 05:20:30;;;;;;;5.90;5.30;;;8.40;99.90;;;;;;5013491;28;20666;-72
2023/09/24 05:22:55;;;;;;;8.67;6.43;;;8.40;99.90;;;;;;5012344;28;20184;-72
2023/09/24 05:25:21;;;;;;;8.30;5.63;;;8.40;99.90;;;;;;5013768;28;20180;-72
2023/09/24 05:27:47;;;;;;;7.90;6.00;;;8.40;99.90;;;;;;5013395;28;20208;-72
2023/09/24 05:30:12;;;;;;;10.40;6.23;;;8.50;99.90;;;;;;5012051;28;20238;-72
2023/09/24 05:32:38;;;;;;;8.10;6.20;;;8.50;99.90;;;;;;5013379;28;20180;-72
2023/09/24 05:35:04;;;;;;;11.67;5.77;;;8.50;99.90;;;;;;5013448;28;20187;-72
2023/09/24 05:37:29;;;;;;;7.93;6.23;;;8.60;99.90;;;;;;5012991;28;20275;-73
2023/09/24 05:39:56;;;;;;;9.30;6.37;;;8.70;99.90;;;;;;5013130;28;20188;-73
2023/09/24 05:42:22;;;;;;;10.00;6.30;;;8.80;99.90;;;;;;5018826;28;20681;-73
2023/09/24 05:44:47;;;;;;;8.13;6.27;;;8.80;99.90;;;;;;5013176;28;20176;-73
2023/09/24 05:47:13;;;;;;;13.70;6.17;;;8.90;99.90;;;;;;5013445;28;20554;-73
2023/09/24 05:49:39;;;;;;;7.07;6.37;;;8.90;99.90;;;;;;5011293;28;20585;-73
2023/09/24 05:52:04;;;;;;;10.23;6.63;;;9.00;99.90;;;;;;5012914;28;20187;-73
2023/09/24 05:54:30;;;;;;;7.07;6.43;;;9.00;99.90;;;;;;5019453;28;20175;-71
2023/09/24 05:56:56;;;;;;;10.33;7.20;;;9.00;99.90;;;;;;5016797;28;20176;-71
2023/09/24 05:59:22;;;;;;;11.73;7.13;;;9.10;99.90;;;;;;5015350;28;20239;-71
2023/09/24 06:01:47;;;;;;;9.57;7.00;;;9.10;99.90;;;;;;5012326;28;20183;-73
2023/09/24 06:04:13;;;;;;;10.40;7.50;;;9.20;99.90;;;;;;5012908;28;20266;-73
2023/09/24 06:06:41;;;;;;;13.93;8.30;;;9.20;99.90;;;;;;5012443;28;20587;-73
2023/09/24 06:09:09;;;;;;;12.57;7.63;;;9.30;99.90;;;;;;5012593;28;20208;-73
2023/09/24 06:11:36;;;;;;;11.73;7.90;;;9.30;99.90;;;;;;5013014;28;20559;-72
2023/09/24 06:14:08;;;;;;;11.73;8.00;;;9.40;99.90;;;;;;5012627;28;20168;-73
2023/09/24 06:16:36;;;;;;;7.87;7.17;;;9.50;99.90;;;;;;5011973;28;20172;-72
2023/09/24 06:19:02;;;;;;;8.30;7.50;;;9.50;99.90;;;;;;5011796;28;20200;-72
2023/09/24 06:21:28;;;;;;;9.10;7.67;;;9.50;99.90;;;;;;5012166;28;20190;-72
2023/09/24 06:23:55;;;;;;;8.93;7.83;;;9.60;99.90;;;;;;5012268;28;20553;-73
2023/09/24 06:26:21;;;;;;;11.80;7.87;;;9.60;99.90;;;;;;5012517;28;20176;-72
2023/09/24 06:28:47;;;;;;;14.73;8.40;;;9.70;99.90;;;;;;5011974;28;20207;-72
2023/09/24 06:31:12;;;;;;;8.90;8.00;;;9.80;99.90;;;;;;5011975;28;20218;-72
2023/09/24 06:33:38;;;;;;;11.97;8.10;;;9.80;99.90;;;;;;5011833;28;20176;-73
2023/09/24 06:36:04;;;;;;;17.13;8.77;;;9.90;99.90;;;;;;5012363;28;20636;-70
2023/09/24 06:38:30;;;;;;;9.73;8.83;;;10.10;99.90;;;;;;5011997;28;20208;-72
2023/09/24 06:41:00;;;;;;;11.17;8.57;;;10.50;99.90;;;;;;5011872;28;20180;-70
2023/09/24 06:43:26;;;;;;;14.33;8.20;;;11.00;99.90;;;;;;5011959;28;20196;-72
2023/09/24 06:45:56;;;;;;;10.07;7.70;;;11.40;99.90;;;;;;5011777;28;20184;-72
2023/09/24 06:48:22;;;;;;;7.90;7.10;;;11.90;99.90;;;;;;5019917;28;20207;-72
2023/09/24 06:50:48;;;;;;;8.83;7.20;;;12.40;99.90;;;;;;5011865;28;20199;-71
2023/09/24 06:53:14;;;;;;;8.77;6.40;;;12.80;99.90;;;;;;5011990;28;20206;-72
2023/09/24 06:55:40;;;;;;;6.33;5.23;;;13.10;99.90;;;;;;5011673;28;20188;-72
2023/09/24 06:58:05;;;;;;;4.97;4.57;;;13.60;99.90;;;;;;5010400;28;20667;-72
2023/09/24 07:00:32;;;;;;;4.97;4.57;;;14.10;99.90;;;;;;5011574;28;20257;-71
2023/09/24 07:02:57;;;;;;;5.30;4.03;;;14.40;99.90;;;;;;5011700;28;20639;-71
2023/09/24 07:05:23;;;;;;;4.20;3.80;;;14.90;99.90;;;;;;5011755;28;20271;-72
2023/09/24 07:07:49;;;;;;;5.50;3.53;;;15.20;99.90;;;;;;5011067;28;20231;-70
2023/09/24 07:10:14;;;;;;;4.80;3.43;;;15.50;99.90;;;;;;5010194;28;20259;-71
2023/09/24 07:12:42;;;;;;;4.43;3.30;;;15.80;99.90;;;;;;5017294;28;20655;-73
2023/09/24 07:15:08;;;;;;;4.47;3.20;;;16.00;99.90;;;;;;5011470;28;20196;-73
2023/09/24 07:17:35;;;;;;;2.93;2.73;;;16.20;99.90;;;;;;5013767;28;20622;-72
2023/09/24 07:20:01;;;;;;;4.00;3.10;;;16.50;99.90;;;;;;5016528;28;20195;-74
2023/09/24 07:22:27;;;;;;;3.10;2.90;;;16.60;99.90;;;;;;5011311;28;20180;-72
2023/09/24 07:24:53;;;;;;;4.43;3.10;;;16.70;99.90;;;;;;5011296;28;20180;-71
2023/09/24 07:27:19;;;;;;;3.30;3.00;;;16.80;99.90;;;;;;5011801;28;20203;-72
2023/09/24 07:29:45;;;;;;;3.33;2.77;;;17.10;99.90;;;;;;5009243;28;20203;-72
2023/09/24 07:32:11;;;;;;;7.80;2.90;;;17.40;99.90;;;;;;5011489;28;20183;-73
2023/09/24 07:34:37;;;;;;;3.20;3.00;;;17.50;99.90;;;;;;5011109;28;20532;-74
2023/09/24 07:37:05;;;;;;;5.60;3.37;;;17.60;99.90;;;;;;5018693;28;20182;-72
2023/09/24 07:39:30;;;;;;;3.00;2.80;;;17.70;99.90;;;;;;5021987;28;20690;-72
2023/09/24 07:41:56;;;;;;;4.87;2.80;;;18.00;99.90;;;;;;5010652;28;20199;-71
2023/09/24 07:44:21;;;;;;;6.10;3.13;;;18.30;99.90;;;;;;5011429;28;20287;-71
2023/09/24 07:46:48;;;;;;;3.57;2.73;;;18.30;99.90;;;;;;5010970;28;20294;-71
2023/09/24 07:49:14;;;;;;;5.20;3.07;;;18.40;99.90;;;;;;5011045;28;20309;-71
2023/09/24 07:51:41;;;;;;;10.30;3.00;;;18.30;99.90;;;;;;5024311;28;20268;-74
2023/09/24 07:54:07;;;;;;;5.90;2.93;;;18.50;99.90;;;;;;5010864;28;20644;-70
2023/09/24 07:56:33;;;;;;;6.55;2.90;;;18.90;99.90;;;;;;5014561;28;20540;-71
2023/09/24 07:58:59;;;;;;;3.53;2.83;;;19.40;99.90;;;;;;5011007;28;20199;-72
2023/09/24 08:01:24;;;;;;;3.07;2.83;;;19.50;99.90;;;;;;5010799;28;20216;-71
2023/09/24 08:03:51;;;;;;;3.97;2.70;;;19.50;99.90;;;;;;5010305;28;20184;-72
2023/09/24 08:06:18;;;;;;;6.20;3.10;;;19.30;99.90;;;;;;5009858;28;20683;-72
2023/09/24 08:08:43;;;;;;;4.13;3.83;;;19.40;99.90;;;;;;5010560;28;20212;-72
2023/09/24 08:11:09;;;;;;;6.90;3.47;;;19.70;99.90;;;;;;5010865;28;20649;-72
2023/09/24 08:13:35;;;;;;;4.00;3.10;;;19.90;99.90;;;;;;5010800;28;20173;-71
2023/09/24 08:16:00;;;;;;;4.07;2.97;;;20.00;99.90;;;;;;5008986;28;20264;-71
2023/09/24 08:18:26;;;;;;;4.45;3.20;;;20.00;99.90;;;;;;5011280;28;20290;-72
2023/09/24 08:20:53;;;;;;;3.60;2.30;;;20.10;99.90;;;;;;5009282;28;20172;-72
2023/09/24 08:23:20;;;;;;;7.70;3.13;;;20.10;99.90;;;;;;5011198;28;20187;-73
2023/09/24 08:25:48;;;;;;;2.50;2.30;;;20.10;99.90;;;;;;5010932;28;20192;-71
2023/09/24 08:28:14;;;;;;;2.93;2.63;;;20.10;99.90;;;;;;5010802;28;20216;-71
2023/09/24 08:30:39;;;;;;;2.75;2.55;;;20.20;99.90;;;;;;5010369;28;20600;-72
2023/09/24 08:33:07;;;;;;;3.03;2.80;;;20.50;99.90;;;;;;5010644;28;20548;-73
2023/09/24 08:35:32;;;;;;;2.80;2.60;;;20.80;99.90;;;;;;5010714;28;20208;-72
2023/09/24 08:37:58;;;;;;;6.45;2.83;;;21.10;99.90;;;;;;5010277;28;20187;-71
2023/09/24 08:40:28;;;;;;;2.92;2.53;;;21.50;99.90;;;;;;5018005;28;20275;-70
2023/09/24 08:42:55;;;;;;;4.45;2.50;;;21.80;99.90;;;;;;5013627;28;20211;-71
2023/09/24 08:45:21;;;;;;;3.72;2.38;;;22.00;99.90;;;;;;5014256;28;20180;-70
2023/09/24 08:47:47;;;;;;;4.35;2.08;;;22.20;99.90;;;;;;5013608;28;20227;-70
2023/09/24 08:50:14;;;;;;;2.03;1.92;;;22.40;99.90;;;;;;5014170;28;20231;-70
2023/09/24 08:52:42;;;;;;;3.35;2.50;;;22.50;99.90;;;;;;5013762;28;20259;-71
2023/09/24 08:55:09;;;;;;;3.15;2.25;;;22.40;99.90;;;;;;5014738;28;20178;-71
2023/09/24 08:57:39;;;;;;;3.05;2.40;;;22.30;99.90;;;;;;5013355;28;20600;-71
2023/09/24 09:00:09;;;;;;;4.60;2.30;;;22.30;99.90;;;;;;5020971;28;20596;-71
2023/09/24 09:02:35;;;;;;;4.13;2.45;;;22.30;99.90;;;;;;5020870;28;20183;-71
2023/09/24 09:05:04;;;;;;;5.00;2.17;;;22.20;99.90;;;;;;5014185;28;20172;-70
2023/09/24 09:07:30;;;;;;;2.45;2.20;;;22.50;99.90;;;;;;5012637;28;20698;-71
2023/09/24 09:09:59;;;;;;;2.75;2.10;;;22.70;99.90;;;;;;5013437;28;20188;-71
2023/09/24 09:12:26;;;;;;;2.70;2.20;;;22.90;99.90;;;;;;5012650;28;20548;-72
2023/09/24 09:14:52;;;;;;;3.17;2.13;;;23.10;99.90;;;;;;5012327;28;20659;-72
2023/09/24 09:17:18;;;;;;;3.25;2.10;;;23.10;99.90;;;;;;5013870;28;20184;-70
2023/09/24 09:19:52;;;;;;;3.35;2.05;;;23.10;99.90;;;;;;5013286;28;20204;-71
2023/09/24 09:22:23;;;;;;;4.53;2.25;;;22.80;99.90;;;;;;5013628;28;20295;-71
2023/09/24 09:25:06;;;;;;;2.78;2.28;;;22.80;99.90;;;;;;5013422;28;20192;-73
2023/09/24 09:27:33;;;;;;;5.18;2.38;;;22.80;99.90;;;;;;5013731;28;20184;-72
2023/09/24 09:30:16;;;;;;;4.55;2.65;;;22.50;99.90;;;;;;5003536;28;20203;-72
2023/09/24 09:32:46;;;;;;;4.82;2.33;;;22.50;99.90;;;;;;5013502;28;20263;-71
2023/09/24 09:35:14;;;;;;;3.08;2.17;;;22.60;99.90;;;;;;5019650;28;20271;-71
2023/09/24 09:37:40;;;;;;;3.47;2.13;;;22.70;99.90;;;;;;5013402;28;20180;-70
2023/09/24 09:40:06;;;;;;;6.03;2.30;;;22.80;99.90;;;;;;5013139;28;20658;-71
2023/09/24 09:42:35;;;;;;;4.32;2.22;;;22.90;99.90;;;;;;5013245;28;20219;-71
2023/09/24 09:45:07;;;;;;;2.20;2.10;;;22.90;99.90;;;;;;5004197;28;20179;-73
2023/09/24 09:47:34;;;;;;;4.30;2.47;;;22.80;99.90;;;;;;5012498;28;20755;-71
2023/09/24 09:50:00;;;;;;;5.55;2.17;;;22.60;99.90;;;;;;5008646;28;20206;-70
2023/09/24 09:52:39;;;;;;;7.15;2.40;;;22.50;99.90;;;;;;5018196;28;20172;-71
2023/09/24 09:55:06;;;;;;;3.25;2.30;;;22.60;99.90;;;;;;5006059;28;20204;-72
2023/09/24 09:57:33;;;;;;;3.85;2.58;;;22.50;99.90;;;;;;5013574;28;20263;-72
2023/09/24 10:00:00;;;;;;;3.20;2.40;;;22.50;99.90;;;;;;5012731;28;20250;-71
2023/09/24 10:02:29;;;;;;;2.83;2.60;;;22.50;99.90;;;;;;5013255;28;20190;-72
2023/09/24 10:04:57;;;;;;;2.55;2.20;;;22.60;99.90;;;;;;5013135;28;20180;-75
2023/09/24 10:07:23;;;;;;;2.50;2.20;;;22.60;99.90;;;;;;5011903;28;20257;-71
2023/09/24 10:09:50;;;;;;;4.20;2.50;;;22.50;99.90;;;;;;5009509;28;20231;-72
2023/09/24 10:12:36;;;;;;;5.10;2.45;;;22.50;99.90;;;;;;5012792;28;20544;-73
2023/09/24 10:15:25;;;;;;;3.28;2.60;;;22.50;99.90;;;;;;5004781;28;20211;-71
2023/09/24 10:18:10;;;;;;;4.15;2.40;;;22.20;99.90;;;;;;5012396;28;20580;-72
2023/09/24 10:20:51;;;;;;;5.15;2.63;;;22.20;99.90;;;;;;5013307;28;20180;-72
2023/09/24 10:23:29;;;;;;;4.30;3.05;;;22.20;99.90;;;;;;5011250;28;20772;-71
2023/09/24 10:26:00;;;;;;;2.92;2.72;;;22.10;99.90;;;;;;5012099;28;20184;-72
2023/09/24 10:28:48;;;;;;;5.28;2.60;;;21.90;99.90;;;;;;5015241;28;20210;-72
2023/09/24 10:31:14;;;;;;;3.85;3.28;;;21.70;99.90;;;;;;5012080;28;20180;-71
2023/09/24 10:33:59;;;;;;;3.88;2.88;;;21.60;99.90;;;;;;5012257;28;20176;-71
2023/09/24 10:36:30;;;;;;;2.80;2.60;;;21.50;99.90;;;;;;5018634;28;20181;-72
2023/09/24 10:39:06;;;;;;;2.28;2.08;;;21.40;99.90;;;;;;5011944;28;20230;-72
2023/09/24 10:41:33;;;;;;;2.90;2.60;;;21.40;99.90;;;;;;5011833;28;20205;-73
2023/09/24 10:44:21;;;;;;;4.55;2.83;;;21.30;99.90;;;;;;5011814;28;20174;-71
2023/09/24 10:46:47;;;;;;;4.80;2.60;;;21.30;99.90;;;;;;5010549;28;20176;-72
2023/09/24 10:49:21;;;;;;;2.85;2.55;;;21.20;99.90;;;;;;5010519;28;20682;-73
2023/09/24 10:51:48;;;;;;;3.33;2.75;;;21.20;99.90;;;;;;5011667;28;20547;-71
2023/09/24 10:54:17;;;;;;;4.13;2.50;;;21.00;99.90;;;;;;5016648;28;20691;-70
2023/09/24 10:56:49;;;;;;;3.00;2.80;;;21.00;99.90;;;;;;5011791;28;20187;-71
2023/09/24 10:59:16;;;;;;;3.43;3.03;;;21.00;99.90;;;;;;5011961;28;20631;-71
2023/09/24 11:01:42;;;;;;;3.55;3.35;;;21.10;99.90;;;;;;5011479;28;20664;-74
2023/09/24 11:04:09;;;;;;;2.92;2.60;;;21.20;99.90;;;;;;5011303;28;20263;-71
2023/09/24 11:06:35;;;;;;;3.33;3.03;;;21.30;99.90;;;;;;5010336;28;20180;-73
2023/09/24 11:09:18;;;;;;;3.13;2.87;;;21.40;99.90;;;;;;5011278;28;20212;-74
2023/09/24 11:11:44;;;;;;;2.88;2.50;;;21.60;99.90;;;;;;5011617;28;20184;-73
2023/09/24 11:14:14;;;;;;;3.95;2.50;;;21.60;99.90;;;;;;5011584;28;20215;-73
2023/09/24 11:16:39;;;;;;;2.80;2.60;;;21.50;99.90;;;;;;5011497;28;20525;-73
2023/09/24 11:19:05;;;;;;;4.22;3.47;;;21.60;99.90;;;;;;5011577;28;20213;-73
2023/09/24 11:21:31;;;;;;;5.40;2.90;;;21.50;99.90;;;;;;5011476;28;20180;-73
2023/09/24 11:23:57;;;;;;;5.53;3.08;;;21.50;99.90;;;;;;5009968;28;20599;-74
2023/09/24 11:26:29;;;;;;;4.15;3.22;;;21.60;99.90;;;;;;5011703;28;20238;-74
2023/09/24 11:28:58;;;;;;;5.55;3.40;;;21.60;99.90;;;;;;5015737;28;20220;-74
2023/09/24 11:31:24;;;;;;;3.08;2.88;;;21.50;99.90;;;;;;5011194;28;20235;-73
2023/09/24 11:33:56;;;;;;;3.22;2.38;;;21.70;99.90;;;;;;5011249;28;20557;-73
2023/09/24 11:36:27;;;;;;;2.70;2.50;;;21.80;99.90;;;;;;5012741;28;20566;-74
2023/09/24 11:39:00;;;;;;;5.43;2.30;;;22.00;99.90;;;;;;5012489;28;20215;-75
2023/09/24 11:41:26;;;;;;;4.43;2.47;;;22.00;99.90;;;;;;5013263;28;20220;-73
2023/09/24 11:43:57;;;;;;;2.92;2.38;;;22.10;99.90;;;;;;5012949;28;20219;-72
2023/09/24 11:46:28;;;;;;;2.55;2.33;;;22.10;99.90;;;;;;5013789;28;20274;-72
2023/09/24 11:48:55;;;;;;;2.22;2.13;;;22.10;99.90;;;;;;5011254;28;20608;-73
2023/09/24 11:51:22;;;;;;;2.20;2.00;;;22.30;99.90;;;;;;5014923;28;20180;-73
2023/09/24 11:53:47;;;;;;;2.30;2.10;;;22.30;99.90;;;;;;5009813;28;20234;-73
2023/09/24 11:56:13;;;;;;;2.08;1.98;;;22.30;99.90;;;;;;5011329;28;20180;-73
2023/09/24 11:58:39;;;;;;;2.45;1.95;;;22.20;99.90;;;;;;5011453;28;20660;-73
2023/09/24 12:01:08;;;;;;;2.53;2.00;;;22.30;99.90;;;;;;5009463;28;20360;-73
2023/09/24 12:03:34;;;;;;;3.35;2.20;;;22.40;99.90;;;;;;5024598;28;20655;-73
2023/09/24 12:05:59;;;;;;;2.28;2.08;;;22.70;99.90;;;;;;5012055;28;20237;-72
2023/09/24 12:08:25;;;;;;;2.17;1.98;;;23.00;99.90;;;;;;5011006;28;20216;-74
2023/09/24 12:10:51;;;;;;;2.08;1.80;;;23.20;99.90;;;;;;5010693;28;20184;-72
2023/09/24 12:13:18;;;;;;;1.80;1.70;;;23.20;99.90;;;;;;5011197;28;20591;-74
2023/09/24 12:15:44;;;;;;;2.63;1.90;;;23.10;99.90;;;;;;5011057;28;20176;-74
2023/09/24 12:18:10;;;;;;;2.17;1.98;;;23.00;99.90;;;;;;5020202;28;20695;-74
2023/09/24 12:20:37;;;;;;;2.25;1.90;;;23.00;99.90;;;;;;5018997;28;20180;-73
2023/09/24 12:23:06;;;;;;;2.40;2.08;;;23.10;99.90;;;;;;5014681;28;20562;-73
2023/09/24 12:25:34;;;;;;;2.88;2.13;;;23.10;99.90;;;;;;5014630;28;20674;-74
2023/09/24 12:28:02;;;;;;;2.20;2.00;;;23.30;99.90;;;;;;5014604;28;20298;-73
2023/09/24 12:30:28;;;;;;;2.95;1.85;;;23.40;99.90;;;;;;5014600;28;20207;-73
2023/09/24 12:32:53;;;;;;;3.35;1.70;;;23.70;99.90;;;;;;5014528;28;20188;-72
2023/09/24 12:35:19;;;;;;;2.05;1.60;;;24.00;99.90;;;;;;5014894;28;20211;-73
2023/09/24 12:37:45;;;;;;;3.65;2.03;;;24.10;99.90;;;;;;5015718;28;20561;-74
2023/09/24 12:40:11;;;;;;;2.03;1.85;;;24.10;99.90;;;;;;5022037;28;20267;-73
2023/09/24 12:42:41;;;;;;;1.95;1.80;;;24.20;99.90;;;;;;5014363;28;20228;-73
2023/09/24 12:45:08;;;;;;;2.20;1.92;;;24.30;99.90;;;;;;5014219;28;20172;-73
2023/09/24 12:47:35;;;;;;;2.58;1.85;;;24.60;99.90;;;;;;5014400;28;20263;-72
2023/09/24 12:50:06;;;;;;;2.00;1.80;;;24.70;99.90;;;;;;5013714;28;20199;-74